Time;durP1;ratioP1;P1;durP2;ratioP2;P2;SDS_P1;SDS_P2;PMS_P1;PMS_P2;Temp;Humidity;BMP_temperature;BMP_pressure;BME280_temperature;BME280_humidity;BME280_pressure;Samples;Min_cycle;Max_cycle;Signal;HPM_P1;HPM_P2
2023/12/07 00:00:51;;;;;;;46.83;19.42;;;2.80;98.50;;;;;;5036005;28;20543;-85
2023/12/07 00:03:16;;;;;;;49.05;20.08;;;2.80;98.50;;;;;;5034904;28;20377;-82
2023/12/07 00:05:42;;;;;;;51.72;20.90;;;2.80;98.50;;;;;;5037438;28;20032;-80
2023/12/07 00:08:11;;;;;;;44.05;19.60;;;2.70;98.50;;;;;;5034879;28;20013;-83
2023/12/07 00:10:36;;;;;;;44.30;20.15;;;2.80;98.60;;;;;;5039449;28;20134;-80
2023/12/07 00:13:02;;;;;;;40.97;20.45;;;2.80;98.50;;;;;;5041305;28;20074;-80
2023/12/07 00:15:28;;;;;;;45.17;20.85;;;2.80;98.60;;;;;;5040807;28;20037;-80
2023/12/07 00:17:54;;;;;;;41.42;20.50;;;2.80;98.60;;;;;;5039767;28;20340;-80
2023/12/07 00:20:19;;;;;;;31.70;18.25;;;2.80;98.50;;;;;;5038800;28;20444;-81
2023/12/07 00:22:45;;;;;;;41.38;21.13;;;2.80;98.60;;;;;;5036066;28;20054;-80
2023/12/07 00:25:11;;;;;;;39.97;20.85;;;2.80;98.60;;;;;;5038188;28;20029;-80
2023/12/07 00:27:36;;;;;;;41.33;20.42;;;2.80;98.50;;;;;;5043337;28;20031;-82
2023/12/07 00:30:03;;;;;;;43.40;22.02;;;2.70;98.50;;;;;;5040267;28;20013;-84
2023/12/07 00:32:29;;;;;;;40.95;22.13;;;2.70;98.60;;;;;;5040636;28;20025;-81
2023/12/07 00:34:54;;;;;;;45.30;21.73;;;2.70;98.50;;;;;;5042466;28;20048;-79
2023/12/07 00:37:20;;;;;;;45.55;21.20;;;2.70;98.50;;;;;;5034679;28;20044;-80
2023/12/07 00:39:46;;;;;;;45.17;22.48;;;2.70;98.60;;;;;;5038810;28;20478;-84
2023/12/07 00:42:11;;;;;;;49.97;23.55;;;2.70;98.60;;;;;;5035274;28;20413;-80
2023/12/07 00:44:40;;;;;;;40.40;21.92;;;2.80;98.60;;;;;;5038081;28;20032;-82
2023/12/07 00:47:06;;;;;;;44.60;22.90;;;2.70;98.60;;;;;;5042368;28;20025;-84
2023/12/07 00:49:32;;;;;;;45.03;23.83;;;2.70;98.60;;;;;;5045749;28;20457;-82
2023/12/07 00:51:57;;;;;;;53.20;24.40;;;2.80;98.60;;;;;;5038209;28;20130;-82
2023/12/07 00:54:23;;;;;;;46.95;22.73;;;2.80;98.70;;;;;;5039682;28;20021;-80
2023/12/07 00:56:48;;;;;;;59.03;25.20;;;2.80;98.60;;;;;;5036767;28;20230;-79
2023/12/07 00:59:14;;;;;;;53.33;24.17;;;2.90;98.70;;;;;;5038515;28;20112;-83
2023/12/07 01:01:40;;;;;;;64.07;25.67;;;2.90;98.70;;;;;;5040045;28;20105;-84
2023/12/07 01:04:05;;;;;;;64.43;27.10;;;2.90;98.70;;;;;;5031023;28;20261;-82
2023/12/07 01:06:31;;;;;;;64.90;28.45;;;2.90;98.70;;;;;;5028230;28;20033;-84
2023/12/07 01:08:57;;;;;;;68.18;27.45;;;2.90;98.70;;;;;;5039861;28;20494;-80
2023/12/07 01:11:23;;;;;;;65.70;28.58;;;2.90;98.80;;;;;;5036207;28;20372;-82
2023/12/07 01:13:49;;;;;;;57.75;26.02;;;2.90;98.80;;;;;;5038033;28;20522;-83
2023/12/07 01:16:14;;;;;;;64.18;29.25;;;3.00;98.80;;;;;;5029011;28;20029;-82
2023/12/07 01:18:40;;;;;;;68.68;28.52;;;3.10;98.80;;;;;;5042314;28;20393;-84
2023/12/07 01:21:06;;;;;;;68.80;32.58;;;3.00;98.90;;;;;;5037355;28;20026;-82
2023/12/07 01:23:31;;;;;;;74.57;30.38;;;3.00;98.80;;;;;;5042558;28;20021;-84
2023/12/07 01:25:57;;;;;;;77.85;36.35;;;3.10;98.90;;;;;;5033994;28;20303;-80
2023/12/07 01:28:23;;;;;;;82.57;36.08;;;3.10;98.80;;;;;;5041028;28;20359;-83
2023/12/07 01:30:49;;;;;;;70.32;36.05;;;3.10;98.90;;;;;;5034716;28;20410;-81
2023/12/07 01:33:15;;;;;;;75.93;34.88;;;3.10;98.90;;;;;;5030946;28;20029;-82
2023/12/07 01:35:40;;;;;;;66.22;32.63;;;3.20;98.90;;;;;;5041403;28;20029;-80
2023/12/07 01:38:06;;;;;;;77.85;35.53;;;3.20;98.90;;;;;;5042022;28;20052;-82
2023/12/07 01:40:32;;;;;;;73.95;32.47;;;3.20;98.90;;;;;;5042566;28;20349;-83
2023/12/07 01:42:57;;;;;;;84.22;34.80;;;3.20;98.90;;;;;;5035344;28;20029;-82
2023/12/07 01:45:23;;;;;;;80.68;36.00;;;3.20;99.00;;;;;;5041068;28;20067;-83
2023/12/07 01:47:52;;;;;;;78.88;35.92;;;3.30;99.00;;;;;;5039249;28;20021;-83
2023/12/07 01:50:23;;;;;;;81.18;35.10;;;3.30;99.00;;;;;;5042008;28;20028;-79
2023/12/07 01:52:52;;;;;;;74.55;34.20;;;3.30;99.00;;;;;;5034092;28;20025;-83
2023/12/07 01:55:18;;;;;;;76.15;34.38;;;3.30;99.00;;;;;;5034754;28;20564;-82
2023/12/07 01:57:45;;;;;;;79.20;34.95;;;3.30;99.00;;;;;;5036981;28;20025;-80
2023/12/07 02:00:13;;;;;;;79.55;34.72;;;3.30;99.00;;;;;;5042228;28;20075;-87
2023/12/07 02:02:39;;;;;;;70.43;32.22;;;3.40;99.00;;;;;;5041098;28;20389;-80
2023/12/07 02:05:05;;;;;;;71.50;34.17;;;3.40;99.00;;;;;;5037168;28;20029;-82
2023/12/07 02:07:33;;;;;;;72.70;32.03;;;3.40;99.00;;;;;;5034490;28;20033;-81
2023/12/07 02:09:58;;;;;;;73.53;34.30;;;3.40;99.00;;;;;;5042500;28;20119;-81
2023/12/07 02:12:24;;;;;;;73.07;33.28;;;3.40;98.90;;;;;;5038888;28;20035;-81
2023/12/07 02:14:52;;;;;;;72.07;34.00;;;3.40;99.00;;;;;;5034171;28;20040;-82
2023/12/07 02:17:42;;;;;;;72.28;33.30;;;3.40;99.00;;;;;;5037200;28;20021;-84
2023/12/07 02:20:25;;;;;;;66.93;31.42;;;3.40;98.90;;;;;;5037981;28;20037;-82
2023/12/07 02:22:56;;;;;;;68.70;30.95;;;3.40;98.90;;;;;;5037043;28;20037;-82
2023/12/07 02:25:32;;;;;;;67.53;30.02;;;3.40;98.90;;;;;;5040969;28;20308;-87
2023/12/07 02:27:57;;;;;;;68.82;29.52;;;3.40;98.90;;;;;;5039860;28;20021;-81
2023/12/07 02:30:23;;;;;;;66.65;31.17;;;3.40;99.00;;;;;;5035829;28;20067;-81
2023/12/07 02:32:49;;;;;;;69.85;31.02;;;3.50;99.00;;;;;;5040996;28;20037;-86
2023/12/07 02:35:15;;;;;;;71.82;31.73;;;3.50;99.00;;;;;;5041990;28;20366;-80
2023/12/07 02:37:49;;;;;;;67.00;30.17;;;3.50;98.90;;;;;;5033631;28;20324;-84
2023/12/07 02:40:22;;;;;;;70.50;32.07;;;3.50;98.90;;;;;;5038086;28;20045;-84
2023/12/07 02:42:48;;;;;;;58.63;27.75;;;3.50;98.90;;;;;;5033160;28;20017;-84
2023/12/07 02:45:15;;;;;;;64.88;30.20;;;3.50;98.80;;;;;;5039821;28;20044;-78
2023/12/07 02:47:43;;;;;;;62.60;30.70;;;3.50;98.80;;;;;;5040808;28;20455;-81
2023/12/07 02:50:09;;;;;;;61.75;28.55;;;3.50;98.80;;;;;;5035382;28;20454;-85
2023/12/07 02:52:35;;;;;;;64.22;27.65;;;3.50;98.80;;;;;;5042442;28;20428;-80
2023/12/07 02:55:02;;;;;;;61.42;29.42;;;3.50;98.70;;;;;;5037811;28;20271;-83
2023/12/07 02:57:28;;;;;;;68.10;30.13;;;3.50;98.80;;;;;;5035802;28;20066;-81
2023/12/07 02:59:53;;;;;;;58.38;28.02;;;3.50;98.70;;;;;;5032261;28;20625;-85
2023/12/07 03:02:19;;;;;;;69.25;30.02;;;3.50;98.70;;;;;;5036695;28;20029;-85
2023/12/07 03:04:45;;;;;;;63.13;29.55;;;3.50;98.70;;;;;;5036846;28;20410;-84
2023/12/07 03:07:10;;;;;;;64.63;28.02;;;3.50;98.70;;;;;;5029267;28;20432;-82
2023/12/07 03:09:36;;;;;;;61.20;28.02;;;3.50;98.70;;;;;;5036519;28;20013;-81
2023/12/07 03:12:03;;;;;;;62.60;28.75;;;3.60;98.70;;;;;;5039741;28;20668;-85
2023/12/07 03:14:29;;;;;;;56.65;26.70;;;3.60;98.70;;;;;;5038317;28;20104;-82
2023/12/07 03:16:55;;;;;;;58.50;27.08;;;3.50;98.60;;;;;;5039218;28;20097;-81
2023/12/07 03:19:20;;;;;;;57.78;26.80;;;3.50;98.60;;;;;;5040183;28;20046;-79
2023/12/07 03:21:46;;;;;;;53.08;26.58;;;3.50;98.60;;;;;;5038658;28;20440;-83
2023/12/07 03:24:12;;;;;;;48.83;26.02;;;3.50;98.60;;;;;;5036089;28;20041;-80
2023/12/07 03:26:38;;;;;;;56.75;27.58;;;3.50;98.50;;;;;;5031533;28;20466;-79
2023/12/07 03:29:03;;;;;;;53.45;26.50;;;3.50;98.50;;;;;;5039906;28;20028;-82
2023/12/07 03:31:29;;;;;;;52.72;26.02;;;3.50;98.50;;;;;;5034529;28;20660;-79
2023/12/07 03:33:56;;;;;;;51.30;24.85;;;3.50;98.50;;;;;;5041374;28;20412;-81
2023/12/07 03:36:22;;;;;;;51.38;25.83;;;3.40;98.40;;;;;;5037842;28;20148;-78
2023/12/07 03:38:48;;;;;;;50.92;24.48;;;3.40;98.50;;;;;;5038224;28;20043;-81
2023/12/07 03:41:14;;;;;;;48.85;24.63;;;3.40;98.50;;;;;;5038497;28;20069;-81
2023/12/07 03:43:40;;;;;;;55.38;26.60;;;3.40;98.50;;;;;;5039074;28;20023;-82
2023/12/07 03:46:07;;;;;;;51.17;25.13;;;3.40;98.60;;;;;;5039087;28;20119;-80
2023/12/07 03:48:33;;;;;;;49.95;25.45;;;3.40;98.60;;;;;;5043530;28;20447;-84
2023/12/07 03:51:00;;;;;;;52.78;25.58;;;3.40;98.60;;;;;;5044740;28;20036;-80
2023/12/07 03:53:25;;;;;;;52.58;26.67;;;3.40;98.60;;;;;;5038269;28;20159;-83
2023/12/07 03:55:51;;;;;;;49.67;24.38;;;3.50;98.60;;;;;;5043916;28;20037;-84
2023/12/07 03:58:17;;;;;;;46.72;24.08;;;3.50;98.50;;;;;;5043232;28;20052;-79
2023/12/07 04:00:43;;;;;;;50.53;25.40;;;3.40;98.50;;;;;;5042237;28;20455;-81
2023/12/07 04:03:09;;;;;;;52.08;25.63;;;3.50;98.50;;;;;;5030740;28;20450;-81
2023/12/07 04:05:35;;;;;;;55.35;25.27;;;3.40;98.50;;;;;;5039408;28;20043;-85
2023/12/07 04:08:00;;;;;;;55.38;27.83;;;3.40;98.50;;;;;;5044447;28;20021;-84
2023/12/07 04:10:26;;;;;;;52.25;25.48;;;3.50;98.50;;;;;;5045313;28;20120;-80
2023/12/07 04:12:54;;;;;;;48.13;24.23;;;3.40;98.40;;;;;;5042417;28;20035;-85
2023/12/07 04:15:20;;;;;;;51.35;25.60;;;3.50;98.40;;;;;;5044246;28;20323;-84
2023/12/07 04:17:46;;;;;;;51.13;26.00;;;3.40;98.40;;;;;;5044175;28;20561;-81
2023/12/07 04:20:15;;;;;;;48.03;25.15;;;3.40;98.40;;;;;;5036887;28;20021;-82
2023/12/07 04:22:41;;;;;;;50.30;25.50;;;3.40;98.50;;;;;;5036656;28;20497;-84
2023/12/07 04:25:07;;;;;;;45.38;23.40;;;3.40;98.50;;;;;;5043717;28;20420;-81
2023/12/07 04:27:33;;;;;;;50.47;24.15;;;3.40;98.50;;;;;;5036454;28;20100;-80
2023/12/07 04:29:59;;;;;;;47.53;25.25;;;3.40;98.50;;;;;;5043107;28;20056;-80
2023/12/07 04:32:25;;;;;;;52.97;26.35;;;3.40;98.40;;;;;;5031662;28;20212;-82
2023/12/07 04:34:51;;;;;;;47.55;24.38;;;3.40;98.40;;;;;;5043595;28;20025;-82
2023/12/07 04:37:17;;;;;;;50.80;25.73;;;3.40;98.50;;;;;;5038499;28;20017;-82
2023/12/07 04:39:43;;;;;;;46.45;24.35;;;3.50;98.50;;;;;;5033573;28;20067;-82
2023/12/07 04:42:08;;;;;;;50.47;24.23;;;3.40;98.50;;;;;;5040827;28;20136;-84
2023/12/07 04:44:34;;;;;;;49.38;24.73;;;3.50;98.50;;;;;;5041734;28;20521;-80
2023/12/07 04:47:00;;;;;;;47.55;25.38;;;3.50;98.40;;;;;;5041970;28;20438;-79
2023/12/07 04:49:26;;;;;;;50.95;25.80;;;3.50;98.50;;;;;;5043170;28;20025;-79
2023/12/07 04:51:51;;;;;;;48.53;23.50;;;3.50;98.50;;;;;;5021697;28;20436;-78
2023/12/07 04:54:17;;;;;;;51.42;26.33;;;3.50;98.50;;;;;;5019771;28;20021;-87
2023/12/07 04:56:43;;;;;;;49.17;25.92;;;3.50;98.50;;;;;;5023334;28;20141;-85
2023/12/07 04:59:09;;;;;;;52.75;27.45;;;3.60;98.50;;;;;;5018664;28;20421;-80
2023/12/07 05:01:38;;;;;;;52.30;27.33;;;3.60;98.50;;;;;;5033708;28;20092;-85
2023/12/07 05:04:04;;;;;;;51.72;26.92;;;3.60;98.40;;;;;;5040300;28;20048;-87
2023/12/07 05:06:31;;;;;;;52.20;26.50;;;3.60;98.40;;;;;;5034799;28;20116;-88
2023/12/07 05:08:57;;;;;;;50.92;27.05;;;3.60;98.30;;;;;;5029294;28;20320;-84
2023/12/07 05:11:23;;;;;;;46.45;26.40;;;3.60;98.20;;;;;;5025693;28;20207;-82
2023/12/07 05:13:48;;;;;;;53.22;28.58;;;3.60;98.20;;;;;;5024166;28;20025;-79
2023/12/07 05:16:14;;;;;;;49.30;27.63;;;3.60;98.20;;;;;;5012858;28;20034;-81
2023/12/07 05:18:40;;;;;;;48.20;27.83;;;3.60;98.20;;;;;;5022086;28;20340;-85
2023/12/07 05:21:07;;;;;;;48.00;27.42;;;3.60;98.20;;;;;;5020628;28;20033;-87
2023/12/07 05:23:33;;;;;;;48.47;26.35;;;3.60;98.20;;;;;;5017682;28;20044;-81
2023/12/07 05:25:59;;;;;;;51.67;28.10;;;3.60;98.10;;;;;;5017644;28;20038;-79
2023/12/07 05:28:25;;;;;;;47.47;27.00;;;3.60;98.00;;;;;;5016632;28;20032;-82
2023/12/07 05:30:51;;;;;;;47.28;28.17;;;3.60;97.90;;;;;;5008339;28;20317;-79
2023/12/07 05:33:19;;;;;;;48.33;27.42;;;3.70;97.80;;;;;;5021537;28;20041;-80
2023/12/07 05:35:45;;;;;;;49.83;26.77;;;3.70;97.80;;;;;;5021875;28;20042;-82
2023/12/07 05:38:10;;;;;;;46.55;27.95;;;3.70;97.80;;;;;;5023088;28;20037;-80
2023/12/07 05:40:36;;;;;;;45.70;27.73;;;3.70;97.60;;;;;;5016177;28;20042;-80
2023/12/07 05:43:02;;;;;;;44.15;27.02;;;3.60;97.50;;;;;;5014903;28;20040;-81
2023/12/07 05:45:27;;;;;;;47.47;27.20;;;3.70;97.60;;;;;;5016667;28;20556;-79
2023/12/07 05:47:53;;;;;;;43.00;26.10;;;3.70;97.50;;;;;;5020624;28;20101;-82
2023/12/07 05:50:20;;;;;;;41.35;25.35;;;3.70;97.40;;;;;;5018709;28;20402;-78
2023/12/07 05:52:46;;;;;;;42.85;27.15;;;3.70;97.40;;;;;;5016224;28;20116;-79
2023/12/07 05:55:11;;;;;;;40.42;26.08;;;3.70;97.30;;;;;;5015912;28;20431;-83
2023/12/07 05:57:37;;;;;;;41.95;25.38;;;3.70;97.20;;;;;;5008776;28;20048;-79
2023/12/07 06:00:05;;;;;;;46.40;27.02;;;3.70;97.10;;;;;;5023195;28;20522;-82
2023/12/07 06:02:31;;;;;;;45.72;27.30;;;3.80;97.10;;;;;;5031152;28;20036;-78
2023/12/07 06:04:56;;;;;;;45.05;26.80;;;3.80;97.00;;;;;;5037788;28;20052;-81
2023/12/07 06:07:22;;;;;;;38.90;25.23;;;3.80;97.00;;;;;;5040786;28;20531;-83
2023/12/07 06:09:48;;;;;;;44.75;26.80;;;3.80;97.00;;;;;;5041278;28;20025;-78
2023/12/07 06:12:13;;;;;;;40.70;24.15;;;3.70;96.90;;;;;;5038712;28;20041;-88
2023/12/07 06:14:39;;;;;;;43.20;25.73;;;3.80;97.00;;;;;;5033301;28;20132;-81
2023/12/07 06:17:04;;;;;;;43.17;25.10;;;3.80;96.80;;;;;;5039169;28;20028;-79
2023/12/07 06:19:30;;;;;;;43.08;26.10;;;3.80;96.80;;;;;;5030507;28;20033;-83
2023/12/07 06:21:57;;;;;;;41.75;25.15;;;3.80;96.80;;;;;;5029175;28;20501;-80
2023/12/07 06:24:24;;;;;;;39.53;25.25;;;3.80;96.70;;;;;;5031369;28;20021;-81
2023/12/07 06:26:51;;;;;;;40.53;23.60;;;3.80;96.70;;;;;;5037364;28;20025;-84
2023/12/07 06:29:18;;;;;;;41.35;24.35;;;3.80;96.60;;;;;;5028535;28;20206;-80
2023/12/07 06:31:44;;;;;;;42.85;24.05;;;3.80;96.60;;;;;;5040059;28;20103;-80
2023/12/07 06:34:10;;;;;;;38.65;24.42;;;3.80;96.60;;;;;;5032737;28;20269;-85
2023/12/07 06:36:35;;;;;;;38.72;25.05;;;3.80;96.60;;;;;;5034957;28;20584;-81
2023/12/07 06:39:02;;;;;;;44.80;24.55;;;3.80;96.60;;;;;;5033443;28;20082;-80
2023/12/07 06:41:28;;;;;;;41.33;23.80;;;3.80;96.50;;;;;;5030214;28;20168;-81
2023/12/07 06:43:54;;;;;;;43.67;25.55;;;3.90;96.60;;;;;;5041576;28;20125;-78
2023/12/07 06:46:20;;;;;;;41.92;25.15;;;3.90;96.50;;;;;;5038780;28;20044;-80
2023/12/07 06:48:45;;;;;;;41.45;24.33;;;3.90;96.50;;;;;;5040575;28;20021;-83
2023/12/07 06:51:14;;;;;;;41.15;25.30;;;3.80;96.50;;;;;;5039584;28;20566;-81
2023/12/07 06:53:40;;;;;;;40.42;23.05;;;3.90;96.60;;;;;;5030120;28;20247;-84
2023/12/07 06:56:07;;;;;;;43.40;24.67;;;3.90;96.50;;;;;;5035969;28;20041;-80
2023/12/07 06:58:33;;;;;;;42.95;24.35;;;3.90;96.60;;;;;;5037362;28;20544;-82
2023/12/07 07:00:58;;;;;;;37.67;23.02;;;4.00;96.60;;;;;;5027290;28;20037;-85
2023/12/07 07:03:24;;;;;;;41.75;25.92;;;4.00;96.50;;;;;;5037617;28;20400;-82
2023/12/07 07:05:50;;;;;;;42.72;24.63;;;3.90;96.40;;;;;;5039426;28;20120;-78
2023/12/07 07:08:16;;;;;;;44.35;26.27;;;3.90;96.40;;;;;;5036091;28;20515;-83
2023/12/07 07:10:41;;;;;;;42.85;24.17;;;3.90;96.50;;;;;;5035037;28;20515;-80
2023/12/07 07:13:07;;;;;;;41.95;26.23;;;3.90;96.50;;;;;;5035234;28;20201;-84
2023/12/07 07:15:33;;;;;;;38.30;23.10;;;3.90;96.40;;;;;;5040980;28;20145;-79
2023/12/07 07:17:59;;;;;;;41.72;22.83;;;3.90;96.50;;;;;;5027541;28;20021;-73
2023/12/07 07:20:26;;;;;;;38.03;23.90;;;3.90;96.50;;;;;;5035486;28;20039;-77
2023/12/07 07:22:51;;;;;;;40.47;23.92;;;4.00;96.80;;;;;;5042639;28;20032;-75
2023/12/07 07:25:19;;;;;;;41.05;23.13;;;4.00;96.70;;;;;;5034519;28;20090;-77
2023/12/07 07:27:47;;;;;;;40.30;24.10;;;4.10;96.60;;;;;;5039610;28;20017;-75
2023/12/07 07:30:13;;;;;;;38.03;23.40;;;4.10;96.50;;;;;;5039996;28;20058;-75
2023/12/07 07:32:39;;;;;;;35.45;23.35;;;4.10;96.40;;;;;;5033152;28;20037;-74
2023/12/07 07:35:05;;;;;;;40.35;22.65;;;4.10;96.40;;;;;;5034918;28;20029;-77
2023/12/07 07:37:31;;;;;;;42.53;24.55;;;4.10;96.40;;;;;;5035555;28;20022;-74
2023/12/07 07:39:57;;;;;;;34.75;22.95;;;4.10;96.40;;;;;;5032311;28;20397;-76
2023/12/07 07:42:22;;;;;;;39.53;23.85;;;4.10;96.50;;;;;;5034211;28;20029;-76
2023/12/07 07:44:48;;;;;;;40.08;22.83;;;4.10;96.40;;;;;;5039578;28;20029;-74
2023/12/07 07:47:14;;;;;;;37.67;22.98;;;4.10;96.40;;;;;;5038762;28;20520;-78
2023/12/07 07:49:39;;;;;;;43.13;24.17;;;4.10;96.40;;;;;;5037775;28;20024;-75
2023/12/07 07:52:05;;;;;;;38.83;22.83;;;4.00;96.40;;;;;;5036901;28;20033;-75
2023/12/07 07:54:31;;;;;;;36.35;21.02;;;4.10;96.30;;;;;;5038435;28;20090;-75
2023/12/07 07:56:56;;;;;;;38.67;23.45;;;4.10;96.30;;;;;;5035411;28;20036;-75
2023/12/07 07:59:22;;;;;;;38.38;23.15;;;4.10;96.30;;;;;;5033381;28;20025;-76
2023/12/07 08:01:48;;;;;;;40.40;22.45;;;4.10;96.30;;;;;;5033402;28;20024;-74
2023/12/07 08:04:13;;;;;;;40.67;24.77;;;4.10;96.30;;;;;;5029871;28;20036;-74
2023/12/07 08:06:39;;;;;;;40.15;24.48;;;4.10;96.30;;;;;;5032105;28;20029;-74
2023/12/07 08:09:05;;;;;;;39.22;24.80;;;4.10;96.30;;;;;;5033787;28;20121;-75
2023/12/07 08:11:32;;;;;;;37.88;24.00;;;4.20;96.40;;;;;;5046894;28;20044;-78
2023/12/07 08:13:58;;;;;;;57.42;30.80;;;4.10;96.30;;;;;;5029815;28;20021;-76
2023/12/07 08:16:24;;;;;;;50.47;29.15;;;4.20;96.30;;;;;;5032113;28;20037;-76
2023/12/07 08:18:49;;;;;;;43.13;28.70;;;4.20;96.20;;;;;;5025420;28;20845;-78
2023/12/07 08:21:22;;;;;;;45.10;26.67;;;4.20;96.10;;;;;;5034577;28;20037;-76
2023/12/07 08:23:48;;;;;;;40.40;25.65;;;4.20;96.10;;;;;;5037007;28;20037;-77
2023/12/07 08:26:14;;;;;;;46.35;27.45;;;4.20;96.20;;;;;;5038838;28;20029;-76
2023/12/07 08:28:40;;;;;;;37.35;22.35;;;4.20;96.10;;;;;;5036655;28;20029;-77
2023/12/07 08:31:06;;;;;;;35.55;23.42;;;4.30;96.10;;;;;;5032943;28;20075;-76
2023/12/07 08:33:34;;;;;;;39.78;24.75;;;4.30;96.10;;;;;;5031198;28;20029;-79
2023/12/07 08:36:00;;;;;;;34.50;23.52;;;4.30;96.00;;;;;;5042162;28;20136;-77
2023/12/07 08:38:25;;;;;;;37.63;22.52;;;4.30;96.00;;;;;;5036107;28;20441;-77
2023/12/07 08:40:51;;;;;;;38.35;24.17;;;4.30;96.00;;;;;;5039299;28;20063;-77
2023/12/07 08:43:19;;;;;;;42.25;23.92;;;4.30;96.00;;;;;;5038876;28;20025;-76
2023/12/07 08:45:45;;;;;;;38.70;25.52;;;4.30;96.10;;;;;;5050758;28;20060;-78
2023/12/07 08:48:11;;;;;;;40.88;23.60;;;4.30;96.10;;;;;;5036876;28;20496;-76
2023/12/07 08:50:37;;;;;;;41.38;25.05;;;4.40;96.20;;;;;;5041762;28;20155;-74
2023/12/07 08:53:03;;;;;;;39.50;24.05;;;4.40;96.20;;;;;;5038613;28;20295;-78
2023/12/07 08:55:29;;;;;;;48.05;24.35;;;4.40;96.10;;;;;;5038982;28;20123;-76
2023/12/07 08:57:55;;;;;;;46.33;27.40;;;4.50;96.00;;;;;;5037056;28;20013;-75
2023/12/07 09:00:23;;;;;;;38.92;24.83;;;4.50;96.00;;;;;;5035157;28;20045;-78
2023/12/07 09:02:49;;;;;;;33.50;21.42;;;4.50;96.00;;;;;;5025620;28;20021;-76
2023/12/07 09:05:15;;;;;;;35.30;22.40;;;4.60;96.00;;;;;;5039396;28;20452;-72
2023/12/07 09:07:42;;;;;;;32.50;22.95;;;4.60;96.00;;;;;;5026554;28;20492;-75
2023/12/07 09:10:08;;;;;;;36.30;22.50;;;4.60;95.90;;;;;;5038610;28;20198;-73
2023/12/07 09:12:35;;;;;;;31.40;21.65;;;4.60;95.90;;;;;;5040061;28;20396;-73
2023/12/07 09:15:07;;;;;;;33.70;22.48;;;4.70;95.80;;;;;;5032599;28;20037;-72
2023/12/07 09:17:33;;;;;;;36.20;21.10;;;4.80;95.80;;;;;;5040834;28;20021;-72
2023/12/07 09:19:58;;;;;;;29.63;20.20;;;4.90;95.70;;;;;;5034643;28;20493;-74
2023/12/07 09:22:25;;;;;;;31.80;19.35;;;5.00;95.40;;;;;;5040923;28;20532;-75
2023/12/07 09:24:50;;;;;;;36.80;20.23;;;5.10;95.30;;;;;;5041132;28;20225;-73
2023/12/07 09:27:16;;;;;;;30.50;19.65;;;5.20;95.10;;;;;;5036643;28;20488;-73
2023/12/07 09:29:42;;;;;;;30.48;20.13;;;5.30;94.80;;;;;;5040383;28;20017;-75
2023/12/07 09:32:07;;;;;;;30.90;19.85;;;5.40;94.60;;;;;;5037392;28;20068;-72
2023/12/07 09:34:34;;;;;;;29.13;20.13;;;5.50;94.20;;;;;;5039461;28;20420;-73
2023/12/07 09:37:07;;;;;;;30.27;20.50;;;5.60;94.00;;;;;;5038327;28;20013;-72
2023/12/07 09:39:32;;;;;;;29.95;18.65;;;5.60;93.80;;;;;;5039578;28;20102;-74
2023/12/07 09:41:58;;;;;;;30.38;19.40;;;5.60;93.40;;;;;;5036963;28;20021;-72
2023/12/07 09:44:24;;;;;;;31.48;19.23;;;5.60;93.40;;;;;;5037978;28;20025;-74
2023/12/07 09:46:50;;;;;;;31.30;18.63;;;5.50;93.30;;;;;;5034732;28;20029;-72
2023/12/07 09:49:17;;;;;;;29.90;19.38;;;5.50;93.20;;;;;;5035321;28;20145;-78
2023/12/07 09:51:44;;;;;;;25.13;18.00;;;5.50;93.50;;;;;;5037428;28;20355;-73
2023/12/07 09:54:10;;;;;;;26.90;19.08;;;5.60;93.40;;;;;;5035255;28;20031;-75
2023/12/07 09:56:36;;;;;;;28.95;18.35;;;5.60;93.10;;;;;;5038542;28;20116;-76
2023/12/07 09:59:02;;;;;;;24.88;16.65;;;5.60;93.00;;;;;;5042206;28;20021;-76
2023/12/07 10:01:31;;;;;;;29.10;18.48;;;5.70;92.90;;;;;;5033431;28;20782;-77
2023/12/07 10:04:17;;;;;;;29.95;19.50;;;5.60;92.60;;;;;;5042355;28;20120;-78
2023/12/07 10:06:47;;;;;;;27.67;18.48;;;5.70;92.70;;;;;;5047070;28;20040;-75
2023/12/07 10:09:13;;;;;;;26.13;17.17;;;5.60;92.60;;;;;;5034181;28;20466;-76
2023/12/07 10:11:40;;;;;;;27.33;18.27;;;5.60;92.50;;;;;;5041578;28;20033;-75
2023/12/07 10:14:10;;;;;;;29.17;18.02;;;5.60;92.30;;;;;;5037005;28;20405;-77
2023/12/07 10:16:36;;;;;;;30.30;17.77;;;5.60;92.60;;;;;;5042670;28;20492;-78
2023/12/07 10:19:17;;;;;;;25.90;18.08;;;5.50;92.70;;;;;;5052353;28;20120;-77
2023/12/07 10:21:44;;;;;;;26.73;18.45;;;5.60;92.80;;;;;;5048479;28;20336;-75
2023/12/07 10:24:10;;;;;;;27.10;18.17;;;5.40;92.90;;;;;;5042423;28;20033;-75
2023/12/07 10:26:38;;;;;;;28.63;18.13;;;5.50;93.00;;;;;;5036289;28;20332;-78
2023/12/07 10:29:07;;;;;;;27.35;17.48;;;5.60;93.00;;;;;;5038375;28;20025;-77
2023/12/07 10:31:33;;;;;;;26.73;17.10;;;5.60;92.90;;;;;;5029068;28;20071;-75
2023/12/07 10:34:00;;;;;;;23.58;16.70;;;5.70;92.70;;;;;;5035637;28;20045;-76
2023/12/07 10:36:26;;;;;;;23.45;16.80;;;5.70;92.20;;;;;;5033369;28;20506;-74
2023/12/07 10:38:53;;;;;;;26.20;17.85;;;5.70;92.20;;;;;;5036739;28;20461;-74
2023/12/07 10:41:20;;;;;;;24.42;17.55;;;5.90;92.10;;;;;;5028317;28;21499;-76
2023/12/07 10:43:54;;;;;;;28.92;19.00;;;5.80;91.80;;;;;;5035005;28;20021;-74
2023/12/07 10:46:21;;;;;;;22.87;17.53;;;5.80;91.70;;;;;;5031001;28;20037;-75
2023/12/07 10:48:56;;;;;;;26.40;17.27;;;5.80;91.70;;;;;;5036983;28;20050;-75
2023/12/07 10:51:45;;;;;;;27.00;18.75;;;5.80;91.90;;;;;;5035239;28;20037;-77
2023/12/07 10:54:16;;;;;;;27.05;18.55;;;5.80;91.50;;;;;;5040366;28;20284;-76
2023/12/07 10:56:46;;;;;;;27.33;18.13;;;6.00;91.50;;;;;;5035991;28;20037;-78
2023/12/07 10:59:13;;;;;;;25.40;17.45;;;6.00;91.40;;;;;;5036492;28;20685;-75
2023/12/07 11:01:43;;;;;;;23.48;17.05;;;6.00;91.00;;;;;;5033115;28;20219;-75
2023/12/07 11:04:13;;;;;;;25.50;16.42;;;6.00;91.10;;;;;;5033171;28;20017;-76
2023/12/07 11:06:40;;;;;;;27.55;16.15;;;6.10;90.90;;;;;;5036650;28;20017;-77
2023/12/07 11:09:12;;;;;;;24.05;16.73;;;6.00;91.00;;;;;;5034704;28;20201;-76
2023/12/07 11:11:51;;;;;;;31.77;17.67;;;5.90;91.10;;;;;;5033476;28;20040;-74
2023/12/07 11:14:17;;;;;;;23.80;16.50;;;5.80;91.20;;;;;;5037245;28;20025;-76
2023/12/07 11:16:45;;;;;;;23.45;16.35;;;5.90;91.30;;;;;;5031117;28;20388;-74
2023/12/07 11:19:29;;;;;;;25.95;17.52;;;5.90;91.20;;;;;;5034969;28;20111;-76
2023/12/07 11:21:56;;;;;;;26.25;16.33;;;5.90;91.40;;;;;;5038250;28;20036;-75
2023/12/07 11:24:23;;;;;;;22.48;16.15;;;6.00;91.10;;;;;;5030688;28;20025;-74
2023/12/07 11:26:52;;;;;;;25.67;17.65;;;6.00;91.20;;;;;;5027225;28;20041;-75
2023/12/07 11:29:24;;;;;;;25.33;17.42;;;6.10;91.00;;;;;;5023761;28;20575;-76
2023/12/07 11:31:50;;;;;;;24.50;16.52;;;6.00;91.10;;;;;;5034480;28;20209;-76
2023/12/07 11:34:36;;;;;;;25.70;16.92;;;6.10;91.10;;;;;;5025337;28;20034;-77
2023/12/07 11:37:03;;;;;;;22.65;15.73;;;6.10;91.00;;;;;;5026698;28;20050;-76
2023/12/07 11:39:29;;;;;;;22.38;15.32;;;6.10;90.80;;;;;;5020727;28;20055;-78
2023/12/07 11:42:05;;;;;;;25.13;15.70;;;6.30;91.10;;;;;;5027222;28;20186;-79
2023/12/07 11:44:34;;;;;;;24.88;16.23;;;6.20;90.60;;;;;;5022300;28;20026;-77
2023/12/07 11:47:01;;;;;;;25.80;16.33;;;6.30;90.60;;;;;;5023880;28;20033;-76
2023/12/07 11:49:29;;;;;;;24.30;15.82;;;6.40;90.20;;;;;;5030693;28;20024;-76
2023/12/07 11:51:54;;;;;;;21.70;15.15;;;6.20;90.20;;;;;;5026875;28;20470;-76
2023/12/07 11:54:22;;;;;;;22.20;14.63;;;6.20;90.30;;;;;;5028323;28;20075;-76
2023/12/07 11:56:53;;;;;;;23.65;14.30;;;6.30;90.30;;;;;;5036248;28;20045;-74
2023/12/07 11:59:19;;;;;;;24.50;14.85;;;6.30;90.20;;;;;;5025777;28;20029;-79
2023/12/07 12:01:48;;;;;;;23.05;14.05;;;6.30;90.00;;;;;;5023740;28;20577;-74
2023/12/07 12:04:15;;;;;;;20.38;13.88;;;6.20;89.90;;;;;;5033273;28;20109;-79
2023/12/07 12:06:44;;;;;;;22.65;15.13;;;6.30;89.50;;;;;;5026442;28;20063;-75
2023/12/07 12:09:12;;;;;;;25.88;14.98;;;6.30;89.80;;;;;;5027717;28;20059;-75
2023/12/07 12:11:43;;;;;;;36.67;22.88;;;6.30;90.00;;;;;;5022893;28;20041;-75
2023/12/07 12:14:09;;;;;;;26.63;16.98;;;6.30;90.00;;;;;;5026949;28;20129;-74
2023/12/07 12:16:35;;;;;;;25.60;16.83;;;6.30;90.00;;;;;;5022497;28;20038;-76
2023/12/07 12:19:01;;;;;;;23.85;16.02;;;6.30;90.10;;;;;;5043093;28;20025;-74
2023/12/07 12:21:27;;;;;;;21.95;15.38;;;6.20;90.10;;;;;;5031172;28;20076;-74
2023/12/07 12:23:53;;;;;;;24.80;15.65;;;6.30;90.20;;;;;;5032136;28;20038;-77
2023/12/07 12:26:18;;;;;;;24.13;14.70;;;6.30;90.20;;;;;;5032108;28;20500;-76
2023/12/07 12:28:44;;;;;;;20.55;13.95;;;6.30;90.00;;;;;;5043116;28;20025;-79
2023/12/07 12:31:11;;;;;;;22.90;14.98;;;6.30;89.90;;;;;;5040805;28;20025;-77
2023/12/07 12:33:37;;;;;;;19.55;14.45;;;6.30;89.60;;;;;;5040743;28;20064;-77